sensor_id;sensor_type;location;lat;lon;timestamp;temperature;humidity
19880;DHT22;10102;50.828;4.416;2023-12-20T00:01:08;7.50;99.90
19880;DHT22;10102;50.828;4.416;2023-12-20T00:03:34;7.60;99.90
19880;DHT22;10102;50.828;4.416;2023-12-20T00:06:01;7.40;99.90
19880;DHT22;10102;50.828;4.416;2023-12-20T00:08:27;7.60;99.90
19880;DHT22;10102;50.828;4.416;2023-12-20T00:10:53;7.50;99.90
19880;DHT22;10102;50.828;4.416;2023-12-20T00:13:18;7.60;99.90
19880;DHT22;10102;50.828;4.416;2023-12-20T00:15:44;7.60;99.90
19880;DHT22;10102;50.828;4.416;2023-12-20T00:18:10;7.60;99.90
19880;DHT22;10102;50.828;4.416;2023-12-20T00:20:35;7.50;99.90
19880;DHT22;10102;50.828;4.416;2023-12-20T00:23:01;7.60;99.90
19880;DHT22;10102;50.828;4.416;2023-12-20T00:25:28;7.40;99.90
19880;DHT22;10102;50.828;4.416;2023-12-20T00:27:54;7.50;99.90
19880;DHT22;10102;50.828;4.416;2023-12-20T00:32:45;7.20;99.90
19880;DHT22;10102;50.828;4.416;2023-12-20T00:35:15;7.30;99.90
19880;DHT22;10102;50.828;4.416;2023-12-20T00:37:41;7.30;99.90
19880;DHT22;10102;50.828;4.416;2023-12-20T00:40:07;7.40;99.90
19880;DHT22;10102;50.828;4.416;2023-12-20T00:42:33;7.30;99.90
19880;DHT22;10102;50.828;4.416;2023-12-20T00:45:00;7.30;99.90
19880;DHT22;10102;50.828;4.416;2023-12-20T00:47:25;7.50;99.90
19880;DHT22;10102;50.828;4.416;2023-12-20T00:49:51;7.30;99.90
19880;DHT22;10102;50.828;4.416;2023-12-20T00:52:17;7.40;99.90
19880;DHT22;10102;50.828;4.416;2023-12-20T00:54:43;7.30;99.90
19880;DHT22;10102;50.828;4.416;2023-12-20T00:57:09;7.40;99.90
19880;DHT22;10102;50.828;4.416;2023-12-20T00:59:35;7.70;99.90
19880;DHT22;10102;50.828;4.416;2023-12-20T01:02:01;7.30;99.90
19880;DHT22;10102;50.828;4.416;2023-12-20T01:04:27;7.30;99.90
19880;DHT22;10102;50.828;4.416;2023-12-20T01:06:53;7.20;99.90
19880;DHT22;10102;50.828;4.416;2023-12-20T01:11:45;7.30;99.90
19880;DHT22;10102;50.828;4.416;2023-12-20T01:14:13;7.20;99.90
19880;DHT22;10102;50.828;4.416;2023-12-20T01:21:32;7.00;99.90
19880;DHT22;10102;50.828;4.416;2023-12-20T01:26:23;7.60;99.90
19880;DHT22;10102;50.828;4.416;2023-12-20T01:28:49;7.30;99.90
19880;DHT22;10102;50.828;4.416;2023-12-20T01:31:15;7.00;99.90
19880;DHT22;10102;50.828;4.416;2023-12-20T01:33:40;7.10;99.90
19880;DHT22;10102;50.828;4.416;2023-12-20T01:40:58;7.10;99.90
19880;DHT22;10102;50.828;4.416;2023-12-20T01:43:24;7.00;99.90
19880;DHT22;10102;50.828;4.416;2023-12-20T01:48:16;7.00;99.90
19880;DHT22;10102;50.828;4.416;2023-12-20T01:50:43;7.00;99.90
19880;DHT22;10102;50.828;4.416;2023-12-20T01:53:11;7.00;99.90
19880;DHT22;10102;50.828;4.416;2023-12-20T01:55:39;7.00;99.90
19880;DHT22;10102;50.828;4.416;2023-12-20T01:58:06;7.00;99.90
19880;DHT22;10102;50.828;4.416;2023-12-20T02:00:33;6.90;99.90
19880;DHT22;10102;50.828;4.416;2023-12-20T02:03:01;7.00;99.90
19880;DHT22;10102;50.828;4.416;2023-12-20T02:05:28;6.90;99.90
19880;DHT22;10102;50.828;4.416;2023-12-20T02:07:54;6.90;99.90
19880;DHT22;10102;50.828;4.416;2023-12-20T02:10:20;7.00;99.90
19880;DHT22;10102;50.828;4.416;2023-12-20T02:12:46;7.20;99.90
19880;DHT22;10102;50.828;4.416;2023-12-20T02:17:38;7.00;99.90
19880;DHT22;10102;50.828;4.416;2023-12-20T02:20:05;6.90;99.90
19880;DHT22;10102;50.828;4.416;2023-12-20T02:22:31;7.10;99.90
19880;DHT22;10102;50.828;4.416;2023-12-20T02:27:24;6.90;99.90
19880;DHT22;10102;50.828;4.416;2023-12-20T02:29:50;7.00;99.90
19880;DHT22;10102;50.828;4.416;2023-12-20T02:32:19;6.80;99.90
19880;DHT22;10102;50.828;4.416;2023-12-20T02:34:47;6.90;99.90
19880;DHT22;10102;50.828;4.416;2023-12-20T02:37:13;6.80;99.90
19880;DHT22;10102;50.828;4.416;2023-12-20T02:39:39;6.80;99.90
19880;DHT22;10102;50.828;4.416;2023-12-20T02:42:06;6.60;99.90
19880;DHT22;10102;50.828;4.416;2023-12-20T02:44:31;6.90;99.90
19880;DHT22;10102;50.828;4.416;2023-12-20T02:46:57;6.80;99.90
19880;DHT22;10102;50.828;4.416;2023-12-20T02:49:23;7.00;99.90
19880;DHT22;10102;50.828;4.416;2023-12-20T02:51:48;6.70;99.90
19880;DHT22;10102;50.828;4.416;2023-12-20T02:54:14;6.80;99.90
19880;DHT22;10102;50.828;4.416;2023-12-20T02:59:06;6.80;99.90
19880;DHT22;10102;50.828;4.416;2023-12-20T03:01:34;7.00;99.90
19880;DHT22;10102;50.828;4.416;2023-12-20T03:04:00;6.80;99.90
19880;DHT22;10102;50.828;4.416;2023-12-20T03:06:26;6.80;99.90
19880;DHT22;10102;50.828;4.416;2023-12-20T03:08:53;7.00;99.90
19880;DHT22;10102;50.828;4.416;2023-12-20T03:11:19;6.90;99.90
19880;DHT22;10102;50.828;4.416;2023-12-20T03:13:44;7.00;99.90
19880;DHT22;10102;50.828;4.416;2023-12-20T03:16:11;7.30;99.90
19880;DHT22;10102;50.828;4.416;2023-12-20T03:18:36;7.00;99.90
19880;DHT22;10102;50.828;4.416;2023-12-20T03:21:03;8.30;99.90
19880;DHT22;10102;50.828;4.416;2023-12-20T03:23:29;7.20;99.90
19880;DHT22;10102;50.828;4.416;2023-12-20T03:25:56;7.00;99.90
19880;DHT22;10102;50.828;4.416;2023-12-20T03:28:22;7.00;99.90
19880;DHT22;10102;50.828;4.416;2023-12-20T03:30:48;7.00;99.90
19880;DHT22;10102;50.828;4.416;2023-12-20T03:35:41;7.00;99.90
19880;DHT22;10102;50.828;4.416;2023-12-20T03:38:07;7.10;99.90
19880;DHT22;10102;50.828;4.416;2023-12-20T03:40:32;7.10;99.90
19880;DHT22;10102;50.828;4.416;2023-12-20T03:42:58;7.20;99.90
19880;DHT22;10102;50.828;4.416;2023-12-20T03:45:24;7.30;99.90
19880;DHT22;10102;50.828;4.416;2023-12-20T03:50:21;7.20;99.90
19880;DHT22;10102;50.828;4.416;2023-12-20T03:52:47;7.20;99.90
19880;DHT22;10102;50.828;4.416;2023-12-20T03:55:13;7.20;99.90
19880;DHT22;10102;50.828;4.416;2023-12-20T03:57:39;7.30;99.90
19880;DHT22;10102;50.828;4.416;2023-12-20T04:00:06;7.10;99.90
19880;DHT22;10102;50.828;4.416;2023-12-20T04:02:36;7.20;99.90
19880;DHT22;10102;50.828;4.416;2023-12-20T04:07:28;7.10;99.90
19880;DHT22;10102;50.828;4.416;2023-12-20T04:09:55;7.10;99.90
19880;DHT22;10102;50.828;4.416;2023-12-20T04:12:20;7.00;99.90
19880;DHT22;10102;50.828;4.416;2023-12-20T04:14:46;7.10;99.90
19880;DHT22;10102;50.828;4.416;2023-12-20T04:19:38;7.20;99.90
19880;DHT22;10102;50.828;4.416;2023-12-20T04:22:03;7.70;99.90
19880;DHT22;10102;50.828;4.416;2023-12-20T04:24:29;7.10;99.90
19880;DHT22;10102;50.828;4.416;2023-12-20T04:26:55;7.10;99.90
19880;DHT22;10102;50.828;4.416;2023-12-20T04:29:21;7.00;99.90
19880;DHT22;10102;50.828;4.416;2023-12-20T04:34:12;6.60;99.90
19880;DHT22;10102;50.828;4.416;2023-12-20T04:36:38;7.00;99.90
19880;DHT22;10102;50.828;4.416;2023-12-20T04:39:04;7.00;99.90
19880;DHT22;10102;50.828;4.416;2023-12-20T04:41:30;7.00;99.90
19880;DHT22;10102;50.828;4.416;2023-12-20T04:43:55;7.10;99.90
19880;DHT22;10102;50.828;4.416;2023-12-20T04:46:21;7.10;99.90
19880;DHT22;10102;50.828;4.416;2023-12-20T04:48:47;7.10;99.90
19880;DHT22;10102;50.828;4.416;2023-12-20T04:51:12;7.00;99.90
19880;DHT22;10102;50.828;4.416;2023-12-20T04:53:38;7.00;99.90
19880;DHT22;10102;50.828;4.416;2023-12-20T04:56:04;7.20;99.90
19880;DHT22;10102;50.828;4.416;2023-12-20T04:58:29;7.10;99.90
19880;DHT22;10102;50.828;4.416;2023-12-20T05:00:55;7.30;99.90
19880;DHT22;10102;50.828;4.416;2023-12-20T05:03:21;7.10;99.90
19880;DHT22;10102;50.828;4.416;2023-12-20T05:05:46;7.20;99.90
19880;DHT22;10102;50.828;4.416;2023-12-20T05:08:12;7.20;99.90
19880;DHT22;10102;50.828;4.416;2023-12-20T05:10:38;7.20;99.90
19880;DHT22;10102;50.828;4.416;2023-12-20T05:13:06;7.30;99.90
19880;DHT22;10102;50.828;4.416;2023-12-20T05:15:32;7.40;99.90
19880;DHT22;10102;50.828;4.416;2023-12-20T05:20:23;7.20;99.90
19880;DHT22;10102;50.828;4.416;2023-12-20T05:22:49;7.20;99.90
19880;DHT22;10102;50.828;4.416;2023-12-20T05:25:15;7.20;99.90
19880;DHT22;10102;50.828;4.416;2023-12-20T05:27:40;7.10;99.90
19880;DHT22;10102;50.828;4.416;2023-12-20T05:30:06;7.00;99.90
19880;DHT22;10102;50.828;4.416;2023-12-20T05:34:58;6.90;99.90
19880;DHT22;10102;50.828;4.416;2023-12-20T05:37:24;6.80;99.90
19880;DHT22;10102;50.828;4.416;2023-12-20T05:42:15;6.90;99.90
19880;DHT22;10102;50.828;4.416;2023-12-20T05:44:41;6.90;99.90
19880;DHT22;10102;50.828;4.416;2023-12-20T05:47:07;6.90;99.90
19880;DHT22;10102;50.828;4.416;2023-12-20T05:49:32;6.80;99.90
19880;DHT22;10102;50.828;4.416;2023-12-20T05:51:58;6.70;99.90
19880;DHT22;10102;50.828;4.416;2023-12-20T05:54:24;6.60;99.90
19880;DHT22;10102;50.828;4.416;2023-12-20T05:59:16;6.20;99.90
19880;DHT22;10102;50.828;4.416;2023-12-20T06:04:08;6.50;99.90
19880;DHT22;10102;50.828;4.416;2023-12-20T06:06:33;6.50;99.90
19880;DHT22;10102;50.828;4.416;2023-12-20T06:08:59;6.40;99.90
19880;DHT22;10102;50.828;4.416;2023-12-20T06:11:26;6.50;99.90
19880;DHT22;10102;50.828;4.416;2023-12-20T06:13:52;6.50;99.90
19880;DHT22;10102;50.828;4.416;2023-12-20T06:16:18;6.60;99.90
19880;DHT22;10102;50.828;4.416;2023-12-20T06:21:10;6.60;99.90
19880;DHT22;10102;50.828;4.416;2023-12-20T06:23:38;6.60;99.90
19880;DHT22;10102;50.828;4.416;2023-12-20T06:26:04;6.60;99.90
19880;DHT22;10102;50.828;4.416;2023-12-20T06:28:30;6.60;99.90
19880;DHT22;10102;50.828;4.416;2023-12-20T06:33:23;6.70;99.90
19880;DHT22;10102;50.828;4.416;2023-12-20T06:35:49;6.90;99.90
19880;DHT22;10102;50.828;4.416;2023-12-20T06:38:15;7.00;99.90
19880;DHT22;10102;50.828;4.416;2023-12-20T06:40:40;7.00;99.90
19880;DHT22;10102;50.828;4.416;2023-12-20T06:43:06;6.90;99.90
19880;DHT22;10102;50.828;4.416;2023-12-20T06:47:58;6.70;99.90
19880;DHT22;10102;50.828;4.416;2023-12-20T06:50:24;6.70;99.90
19880;DHT22;10102;50.828;4.416;2023-12-20T06:52:50;6.70;99.90
19880;DHT22;10102;50.828;4.416;2023-12-20T06:55:15;6.70;99.90
19880;DHT22;10102;50.828;4.416;2023-12-20T06:57:42;6.70;99.90
19880;DHT22;10102;50.828;4.416;2023-12-20T07:00:09;6.70;99.90
19880;DHT22;10102;50.828;4.416;2023-12-20T07:02:37;6.40;99.90
19880;DHT22;10102;50.828;4.416;2023-12-20T07:05:03;6.50;99.90
19880;DHT22;10102;50.828;4.416;2023-12-20T07:09:56;6.30;99.90
19880;DHT22;10102;50.828;4.416;2023-12-20T07:14:48;6.20;99.90
19880;DHT22;10102;50.828;4.416;2023-12-20T07:17:13;6.30;99.90
19880;DHT22;10102;50.828;4.416;2023-12-20T07:19:41;6.10;99.90
19880;DHT22;10102;50.828;4.416;2023-12-20T07:22:07;6.60;99.90
19880;DHT22;10102;50.828;4.416;2023-12-20T07:24:33;6.20;99.90
19880;DHT22;10102;50.828;4.416;2023-12-20T07:27:00;6.20;99.90
19880;DHT22;10102;50.828;4.416;2023-12-20T07:29:25;6.10;99.90
19880;DHT22;10102;50.828;4.416;2023-12-20T07:31:53;6.10;99.90
19880;DHT22;10102;50.828;4.416;2023-12-20T07:34:20;6.00;99.90
19880;DHT22;10102;50.828;4.416;2023-12-20T07:39:12;6.00;99.90
19880;DHT22;10102;50.828;4.416;2023-12-20T07:41:38;6.10;99.90
19880;DHT22;10102;50.828;4.416;2023-12-20T07:44:04;6.10;99.90
19880;DHT22;10102;50.828;4.416;2023-12-20T07:46:30;6.10;99.90
19880;DHT22;10102;50.828;4.416;2023-12-20T07:48:56;6.20;99.90
19880;DHT22;10102;50.828;4.416;2023-12-20T07:53:48;6.00;99.90
19880;DHT22;10102;50.828;4.416;2023-12-20T07:56:17;6.00;99.90
19880;DHT22;10102;50.828;4.416;2023-12-20T07:58:43;5.90;99.90
19880;DHT22;10102;50.828;4.416;2023-12-20T08:01:11;6.00;99.90
19880;DHT22;10102;50.828;4.416;2023-12-20T08:03:38;6.00;99.90
19880;DHT22;10102;50.828;4.416;2023-12-20T08:08:30;6.10;99.90
19880;DHT22;10102;50.828;4.416;2023-12-20T08:10:56;6.10;99.90
19880;DHT22;10102;50.828;4.416;2023-12-20T08:13:24;6.20;99.90
19880;DHT22;10102;50.828;4.416;2023-12-20T08:15:52;6.20;99.90
19880;DHT22;10102;50.828;4.416;2023-12-20T08:18:17;6.10;99.90
19880;DHT22;10102;50.828;4.416;2023-12-20T08:23:09;6.10;99.90
19880;DHT22;10102;50.828;4.416;2023-12-20T08:25:35;6.10;99.90
19880;DHT22;10102;50.828;4.416;2023-12-20T08:28:04;6.00;99.90
19880;DHT22;10102;50.828;4.416;2023-12-20T08:30:30;6.10;99.90
19880;DHT22;10102;50.828;4.416;2023-12-20T08:35:22;6.20;99.90
19880;DHT22;10102;50.828;4.416;2023-12-20T08:37:49;6.20;99.90
19880;DHT22;10102;50.828;4.416;2023-12-20T08:40:15;6.30;99.90
19880;DHT22;10102;50.828;4.416;2023-12-20T08:42:41;6.30;99.90
19880;DHT22;10102;50.828;4.416;2023-12-20T08:45:06;6.20;99.90
19880;DHT22;10102;50.828;4.416;2023-12-20T08:47:32;6.30;99.90
19880;DHT22;10102;50.828;4.416;2023-12-20T08:52:26;6.40;99.90
19880;DHT22;10102;50.828;4.416;2023-12-20T08:54:56;6.50;99.90
19880;DHT22;10102;50.828;4.416;2023-12-20T08:57:22;6.40;99.90
19880;DHT22;10102;50.828;4.416;2023-12-20T08:59:51;6.30;99.90
19880;DHT22;10102;50.828;4.416;2023-12-20T09:02:17;6.40;99.90
19880;DHT22;10102;50.828;4.416;2023-12-20T09:04:43;6.60;99.90
19880;DHT22;10102;50.828;4.416;2023-12-20T09:07:24;6.40;99.90
19880;DHT22;10102;50.828;4.416;2023-12-20T09:09:51;6.20;99.90
19880;DHT22;10102;50.828;4.416;2023-12-20T09:12:20;6.40;99.90
19880;DHT22;10102;50.828;4.416;2023-12-20T09:14:47;6.60;99.90
19880;DHT22;10102;50.828;4.416;2023-12-20T09:17:13;6.50;99.90
19880;DHT22;10102;50.828;4.416;2023-12-20T09:22:05;6.60;99.90
19880;DHT22;10102;50.828;4.416;2023-12-20T09:26:57;6.60;99.90
19880;DHT22;10102;50.828;4.416;2023-12-20T09:29:23;6.70;99.90
19880;DHT22;10102;50.828;4.416;2023-12-20T09:31:50;6.70;99.90
19880;DHT22;10102;50.828;4.416;2023-12-20T09:34:16;6.70;99.90
19880;DHT22;10102;50.828;4.416;2023-12-20T09:36:45;6.80;99.90
19880;DHT22;10102;50.828;4.416;2023-12-20T09:39:16;7.00;99.90
19880;DHT22;10102;50.828;4.416;2023-12-20T09:41:45;7.00;99.90
19880;DHT22;10102;50.828;4.416;2023-12-20T09:44:15;7.20;99.90
19880;DHT22;10102;50.828;4.416;2023-12-20T09:46:45;7.30;99.90
19880;DHT22;10102;50.828;4.416;2023-12-20T09:49:11;7.60;99.90
19880;DHT22;10102;50.828;4.416;2023-12-20T09:51:38;7.70;99.90
19880;DHT22;10102;50.828;4.416;2023-12-20T09:54:05;7.90;99.90
19880;DHT22;10102;50.828;4.416;2023-12-20T09:56:31;7.80;99.90
19880;DHT22;10102;50.828;4.416;2023-12-20T09:58:57;8.00;99.90
19880;DHT22;10102;50.828;4.416;2023-12-20T10:01:23;8.10;99.90
19880;DHT22;10102;50.828;4.416;2023-12-20T10:03:51;8.10;99.90
19880;DHT22;10102;50.828;4.416;2023-12-20T10:06:16;8.10;99.90
19880;DHT22;10102;50.828;4.416;2023-12-20T10:08:42;8.00;99.90
19880;DHT22;10102;50.828;4.416;2023-12-20T10:11:09;7.80;99.90
19880;DHT22;10102;50.828;4.416;2023-12-20T10:13:34;7.90;99.90
19880;DHT22;10102;50.828;4.416;2023-12-20T10:16:04;8.00;99.90
19880;DHT22;10102;50.828;4.416;2023-12-20T10:18:31;8.00;99.90
19880;DHT22;10102;50.828;4.416;2023-12-20T10:20:57;8.70;99.90
19880;DHT22;10102;50.828;4.416;2023-12-20T10:26:01;8.90;99.90
19880;DHT22;10102;50.828;4.416;2023-12-20T10:28:33;8.80;99.90
19880;DHT22;10102;50.828;4.416;2023-12-20T10:30:59;8.50;99.90
19880;DHT22;10102;50.828;4.416;2023-12-20T10:33:26;8.60;99.90
19880;DHT22;10102;50.828;4.416;2023-12-20T10:35:52;8.40;99.90
19880;DHT22;10102;50.828;4.416;2023-12-20T10:38:18;8.20;99.90
19880;DHT22;10102;50.828;4.416;2023-12-20T10:40:48;8.30;99.90
19880;DHT22;10102;50.828;4.416;2023-12-20T10:43:15;8.20;99.90
19880;DHT22;10102;50.828;4.416;2023-12-20T10:45:44;8.20;99.90
19880;DHT22;10102;50.828;4.416;2023-12-20T10:48:10;8.50;99.90
19880;DHT22;10102;50.828;4.416;2023-12-20T10:50:38;8.40;99.90
19880;DHT22;10102;50.828;4.416;2023-12-20T10:55:30;8.60;99.90
19880;DHT22;10102;50.828;4.416;2023-12-20T10:58:01;8.70;99.90
19880;DHT22;10102;50.828;4.416;2023-12-20T11:00:29;8.60;99.90
19880;DHT22;10102;50.828;4.416;2023-12-20T11:03:01;8.60;99.90
19880;DHT22;10102;50.828;4.416;2023-12-20T11:05:49;8.70;99.90
19880;DHT22;10102;50.828;4.416;2023-12-20T11:11:24;8.90;99.90
19880;DHT22;10102;50.828;4.416;2023-12-20T11:14:05;8.80;99.90
19880;DHT22;10102;50.828;4.416;2023-12-20T11:16:32;8.80;99.90
19880;DHT22;10102;50.828;4.416;2023-12-20T11:18:58;8.80;99.90
19880;DHT22;10102;50.828;4.416;2023-12-20T11:21:29;8.90;99.90
19880;DHT22;10102;50.828;4.416;2023-12-20T11:23:55;9.10;99.90
19880;DHT22;10102;50.828;4.416;2023-12-20T11:26:28;9.00;99.90
19880;DHT22;10102;50.828;4.416;2023-12-20T11:29:31;8.90;99.90
19880;DHT22;10102;50.828;4.416;2023-12-20T11:32:04;8.90;99.90
19880;DHT22;10102;50.828;4.416;2023-12-20T11:35:19;8.80;99.90
19880;DHT22;10102;50.828;4.416;2023-12-20T11:37:46;8.80;99.90
19880;DHT22;10102;50.828;4.416;2023-12-20T11:40:17;8.70;99.90
19880;DHT22;10102;50.828;4.416;2023-12-20T11:42:52;8.60;99.90
19880;DHT22;10102;50.828;4.416;2023-12-20T11:45:21;8.60;99.90
19880;DHT22;10102;50.828;4.416;2023-12-20T11:47:48;8.50;99.90
19880;DHT22;10102;50.828;4.416;2023-12-20T11:50:18;8.60;99.90
19880;DHT22;10102;50.828;4.416;2023-12-20T11:52:49;8.60;99.90
19880;DHT22;10102;50.828;4.416;2023-12-20T11:55:16;8.60;99.90
19880;DHT22;10102;50.828;4.416;2023-12-20T11:57:43;8.50;99.90
19880;DHT22;10102;50.828;4.416;2023-12-20T12:00:09;8.50;99.90
19880;DHT22;10102;50.828;4.416;2023-12-20T12:02:36;8.50;99.90
19880;DHT22;10102;50.828;4.416;2023-12-20T12:05:02;8.60;99.90
19880;DHT22;10102;50.828;4.416;2023-12-20T12:07:37;8.60;99.90
19880;DHT22;10102;50.828;4.416;2023-12-20T12:10:03;8.70;99.90
19880;DHT22;10102;50.828;4.416;2023-12-20T12:12:29;8.60;99.90
19880;DHT22;10102;50.828;4.416;2023-12-20T12:14:55;8.70;99.90
19880;DHT22;10102;50.828;4.416;2023-12-20T12:17:23;8.80;99.90
19880;DHT22;10102;50.828;4.416;2023-12-20T12:19:48;8.70;99.90
19880;DHT22;10102;50.828;4.416;2023-12-20T12:22:15;8.70;99.90
19880;DHT22;10102;50.828;4.416;2023-12-20T12:24:46;8.80;99.90
19880;DHT22;10102;50.828;4.416;2023-12-20T12:27:13;8.80;99.90
19880;DHT22;10102;50.828;4.416;2023-12-20T12:29:39;8.90;99.90
19880;DHT22;10102;50.828;4.416;2023-12-20T12:32:09;8.80;99.90
19880;DHT22;10102;50.828;4.416;2023-12-20T12:34:35;9.00;99.90
19880;DHT22;10102;50.828;4.416;2023-12-20T12:37:03;8.90;99.90
19880;DHT22;10102;50.828;4.416;2023-12-20T12:39:29;8.90;99.90
19880;DHT22;10102;50.828;4.416;2023-12-20T12:41:56;8.80;99.90
19880;DHT22;10102;50.828;4.416;2023-12-20T12:44:22;8.80;99.90
19880;DHT22;10102;50.828;4.416;2023-12-20T12:46:50;8.90;99.90
19880;DHT22;10102;50.828;4.416;2023-12-20T12:49:19;8.80;99.90
19880;DHT22;10102;50.828;4.416;2023-12-20T12:51:45;8.80;99.90
19880;DHT22;10102;50.828;4.416;2023-12-20T12:54:11;8.90;99.90
19880;DHT22;10102;50.828;4.416;2023-12-20T12:56:39;8.80;99.90
19880;DHT22;10102;50.828;4.416;2023-12-20T12:59:05;8.70;99.90
19880;DHT22;10102;50.828;4.416;2023-12-20T13:01:31;8.80;99.90
19880;DHT22;10102;50.828;4.416;2023-12-20T13:03:57;8.90;99.90
19880;DHT22;10102;50.828;4.416;2023-12-20T13:06:23;8.70;99.90
19880;DHT22;10102;50.828;4.416;2023-12-20T13:08:49;9.10;99.90
19880;DHT22;10102;50.828;4.416;2023-12-20T13:13:41;9.10;99.90
19880;DHT22;10102;50.828;4.416;2023-12-20T13:16:07;9.20;99.90
19880;DHT22;10102;50.828;4.416;2023-12-20T13:18:33;9.00;99.90
19880;DHT22;10102;50.828;4.416;2023-12-20T13:20:58;9.00;99.90
19880;DHT22;10102;50.828;4.416;2023-12-20T13:23:24;9.00;99.90
19880;DHT22;10102;50.828;4.416;2023-12-20T13:25:51;9.20;99.90
19880;DHT22;10102;50.828;4.416;2023-12-20T13:28:16;9.30;99.90
19880;DHT22;10102;50.828;4.416;2023-12-20T13:30:42;9.50;99.90
19880;DHT22;10102;50.828;4.416;2023-12-20T13:33:08;9.50;99.90
19880;DHT22;10102;50.828;4.416;2023-12-20T13:35:36;9.80;99.90
19880;DHT22;10102;50.828;4.416;2023-12-20T13:38:02;9.70;99.90
19880;DHT22;10102;50.828;4.416;2023-12-20T13:40:29;9.70;99.90
19880;DHT22;10102;50.828;4.416;2023-12-20T13:45:21;9.90;99.90
19880;DHT22;10102;50.828;4.416;2023-12-20T13:47:47;9.70;99.90
19880;DHT22;10102;50.828;4.416;2023-12-20T13:50:15;9.90;99.90
19880;DHT22;10102;50.828;4.416;2023-12-20T13:52:41;9.80;99.90
19880;DHT22;10102;50.828;4.416;2023-12-20T13:55:09;9.70;99.90
19880;DHT22;10102;50.828;4.416;2023-12-20T13:57:35;9.90;99.90
19880;DHT22;10102;50.828;4.416;2023-12-20T14:00:04;9.70;99.90
19880;DHT22;10102;50.828;4.416;2023-12-20T14:04:56;9.20;99.90
19880;DHT22;10102;50.828;4.416;2023-12-20T14:07:23;10.10;99.90
19880;DHT22;10102;50.828;4.416;2023-12-20T14:09:49;9.70;99.90
19880;DHT22;10102;50.828;4.416;2023-12-20T14:12:15;9.90;99.90
19880;DHT22;10102;50.828;4.416;2023-12-20T14:14:41;10.00;99.90
19880;DHT22;10102;50.828;4.416;2023-12-20T14:19:32;10.00;99.90
19880;DHT22;10102;50.828;4.416;2023-12-20T14:21:58;9.80;99.90
19880;DHT22;10102;50.828;4.416;2023-12-20T14:24:27;10.00;99.90
19880;DHT22;10102;50.828;4.416;2023-12-20T14:26:53;9.90;99.90
19880;DHT22;10102;50.828;4.416;2023-12-20T14:29:18;9.80;99.90
19880;DHT22;10102;50.828;4.416;2023-12-20T14:31:45;9.70;99.90
19880;DHT22;10102;50.828;4.416;2023-12-20T14:34:11;9.80;99.90
19880;DHT22;10102;50.828;4.416;2023-12-20T14:36:37;9.70;99.90
19880;DHT22;10102;50.828;4.416;2023-12-20T14:39:04;10.20;99.90
19880;DHT22;10102;50.828;4.416;2023-12-20T14:41:30;9.80;99.90
19880;DHT22;10102;50.828;4.416;2023-12-20T14:43:56;9.90;99.90
19880;DHT22;10102;50.828;4.416;2023-12-20T14:46:22;9.80;99.90
19880;DHT22;10102;50.828;4.416;2023-12-20T14:48:48;9.90;99.90
19880;DHT22;10102;50.828;4.416;2023-12-20T14:51:15;9.80;99.90
19880;DHT22;10102;50.828;4.416;2023-12-20T14:56:07;9.80;99.90
19880;DHT22;10102;50.828;4.416;2023-12-20T14:58:33;9.70;99.90
19880;DHT22;10102;50.828;4.416;2023-12-20T15:03:25;9.90;99.90
19880;DHT22;10102;50.828;4.416;2023-12-20T15:05:51;9.80;99.90
19880;DHT22;10102;50.828;4.416;2023-12-20T15:08:16;9.90;99.90
19880;DHT22;10102;50.828;4.416;2023-12-20T15:10:42;9.90;99.90
19880;DHT22;10102;50.828;4.416;2023-12-20T15:13:08;10.00;99.90
19880;DHT22;10102;50.828;4.416;2023-12-20T15:15:33;9.80;99.90
19880;DHT22;10102;50.828;4.416;2023-12-20T15:18:00;9.90;99.90
19880;DHT22;10102;50.828;4.416;2023-12-20T15:20:25;9.80;99.90
19880;DHT22;10102;50.828;4.416;2023-12-20T15:22:51;9.90;99.90
19880;DHT22;10102;50.828;4.416;2023-12-20T15:25:18;10.00;99.90
19880;DHT22;10102;50.828;4.416;2023-12-20T15:27:48;10.10;99.90
19880;DHT22;10102;50.828;4.416;2023-12-20T15:30:21;9.90;99.90
19880;DHT22;10102;50.828;4.416;2023-12-20T15:32:47;9.90;99.90
19880;DHT22;10102;50.828;4.416;2023-12-20T15:35:13;9.90;99.90
19880;DHT22;10102;50.828;4.416;2023-12-20T15:37:39;9.90;99.90
19880;DHT22;10102;50.828;4.416;2023-12-20T15:40:07;9.80;99.90
19880;DHT22;10102;50.828;4.416;2023-12-20T15:42:36;9.80;99.90
19880;DHT22;10102;50.828;4.416;2023-12-20T15:45:03;9.90;99.90
19880;DHT22;10102;50.828;4.416;2023-12-20T15:47:28;9.90;99.90
19880;DHT22;10102;50.828;4.416;2023-12-20T15:49:54;9.90;99.90
19880;DHT22;10102;50.828;4.416;2023-12-20T15:52:20;10.00;99.90
19880;DHT22;10102;50.828;4.416;2023-12-20T15:54:46;9.90;99.90
19880;DHT22;10102;50.828;4.416;2023-12-20T15:57:12;9.90;99.90
19880;DHT22;10102;50.828;4.416;2023-12-20T15:59:41;10.00;99.90
19880;DHT22;10102;50.828;4.416;2023-12-20T16:02:07;10.00;99.90
19880;DHT22;10102;50.828;4.416;2023-12-20T16:04:32;10.10;99.90
19880;DHT22;10102;50.828;4.416;2023-12-20T16:06:58;9.80;99.90
19880;DHT22;10102;50.828;4.416;2023-12-20T16:09:24;9.80;99.90
19880;DHT22;10102;50.828;4.416;2023-12-20T16:11:49;9.80;99.90
19880;DHT22;10102;50.828;4.416;2023-12-20T16:14:15;9.80;99.90
19880;DHT22;10102;50.828;4.416;2023-12-20T16:16:47;9.90;99.90
19880;DHT22;10102;50.828;4.416;2023-12-20T16:19:13;9.90;99.90
19880;DHT22;10102;50.828;4.416;2023-12-20T16:21:39;10.00;99.90
19880;DHT22;10102;50.828;4.416;2023-12-20T16:24:05;9.90;99.90
19880;DHT22;10102;50.828;4.416;2023-12-20T16:26:31;9.50;99.90
19880;DHT22;10102;50.828;4.416;2023-12-20T16:28:57;9.90;99.90
19880;DHT22;10102;50.828;4.416;2023-12-20T16:33:49;10.10;99.90
19880;DHT22;10102;50.828;4.416;2023-12-20T16:38:41;10.20;99.90
19880;DHT22;10102;50.828;4.416;2023-12-20T16:41:06;10.00;99.90
19880;DHT22;10102;50.828;4.416;2023-12-20T16:43:32;10.10;99.90
19880;DHT22;10102;50.828;4.416;2023-12-20T16:45:58;10.10;99.90
19880;DHT22;10102;50.828;4.416;2023-12-20T16:48:23;10.10;99.90
19880;DHT22;10102;50.828;4.416;2023-12-20T16:53:16;9.80;99.90
19880;DHT22;10102;50.828;4.416;2023-12-20T16:55:42;9.90;99.90
19880;DHT22;10102;50.828;4.416;2023-12-20T16:58:12;8.60;99.90
19880;DHT22;10102;50.828;4.416;2023-12-20T17:00:38;9.90;99.90
19880;DHT22;10102;50.828;4.416;2023-12-20T17:03:06;10.10;99.90
19880;DHT22;10102;50.828;4.416;2023-12-20T17:05:31;10.10;99.90
19880;DHT22;10102;50.828;4.416;2023-12-20T17:07:57;10.10;99.90
19880;DHT22;10102;50.828;4.416;2023-12-20T17:10:23;9.80;99.90
19880;DHT22;10102;50.828;4.416;2023-12-20T17:12:48;10.10;99.90
19880;DHT22;10102;50.828;4.416;2023-12-20T17:15:14;10.00;99.90
19880;DHT22;10102;50.828;4.416;2023-12-20T17:17:40;9.90;99.90
19880;DHT22;10102;50.828;4.416;2023-12-20T17:20:07;9.90;99.90
19880;DHT22;10102;50.828;4.416;2023-12-20T17:22:32;9.80;99.90
19880;DHT22;10102;50.828;4.416;2023-12-20T17:24:58;9.80;99.90
19880;DHT22;10102;50.828;4.416;2023-12-20T17:27:24;9.80;99.90
19880;DHT22;10102;50.828;4.416;2023-12-20T17:29:49;9.90;99.90
19880;DHT22;10102;50.828;4.416;2023-12-20T17:32:15;9.90;99.90
19880;DHT22;10102;50.828;4.416;2023-12-20T17:34:41;10.20;99.90